createdAt,value
2022-08-03T00:00:08.970Z,14.81
2022-08-03T00:03:06.356Z,14.81
2022-08-03T00:06:03.966Z,14.81
2022-08-03T00:08:53.190Z,14.81
2022-08-03T00:11:41.300Z,14.81
2022-08-03T00:14:29.203Z,14.81
2022-08-03T00:17:17.170Z,14.81
2022-08-03T00:20:05.801Z,14.81
2022-08-03T00:22:54.118Z,14.81
2022-08-03T00:25:42.167Z,14.81
2022-08-03T00:28:30.544Z,14.81
2022-08-03T00:31:19.756Z,14.75
2022-08-03T00:34:36.284Z,14.75
2022-08-03T00:37:41.736Z,14.75
2022-08-03T00:40:30.274Z,14.75
2022-08-03T00:43:18.310Z,14.81
2022-08-03T00:46:05.988Z,14.88
2022-08-03T00:48:54.327Z,14.94
2022-08-03T00:51:41.987Z,15.00
2022-08-03T00:54:30.731Z,15.00
2022-08-03T00:57:19.384Z,15.06
2022-08-03T01:00:10.468Z,15.13
2022-08-03T01:02:58.281Z,15.13
2022-08-03T01:05:52.301Z,15.19
2022-08-03T01:08:52.730Z,15.25
2022-08-03T01:12:04.293Z,15.31
2022-08-03T01:15:28.319Z,15.38
2022-08-03T01:18:43.005Z,15.38
2022-08-03T01:22:14.505Z,15.44
2022-08-03T01:25:30.571Z,15.50
2022-08-03T01:28:51.200Z,15.50
2022-08-03T01:32:58.898Z,15.56
2022-08-03T01:35:17.500Z,15.56
2022-08-03T01:38:22.172Z,15.56
2022-08-03T01:41:20.302Z,15.56
2022-08-03T01:44:29.201Z,15.56
2022-08-03T01:47:22.899Z,15.56
2022-08-03T01:50:12.575Z,15.50
2022-08-03T01:53:01.981Z,15.50
2022-08-03T01:55:54.344Z,15.50
2022-08-03T01:58:44.866Z,15.50
2022-08-03T02:02:29.184Z,15.56
2022-08-03T02:04:47.928Z,15.50
2022-08-03T02:07:37.689Z,15.50
2022-08-03T02:10:35.200Z,15.50
2022-08-03T02:13:25.495Z,15.44
2022-08-03T02:16:14.732Z,15.44
2022-08-03T02:19:06.811Z,15.44
2022-08-03T02:21:57.042Z,15.50
2022-08-03T02:24:51.069Z,15.56
2022-08-03T02:27:46.405Z,15.63
2022-08-03T02:30:39.466Z,15.69
2022-08-03T02:33:34.544Z,15.75
2022-08-03T02:36:31.489Z,15.81
2022-08-03T02:39:25.088Z,15.88
2022-08-03T02:42:15.813Z,15.94
2022-08-03T02:45:12.565Z,16.00
2022-08-03T02:48:04.325Z,16.00
2022-08-03T02:50:54.895Z,16.06
2022-08-03T02:53:45.321Z,16.06
2022-08-03T02:56:34.577Z,16.13
2022-08-03T02:59:23.643Z,16.13
2022-08-03T03:02:14.880Z,16.19
2022-08-03T03:05:55.823Z,16.19
2022-08-03T03:08:17.682Z,16.25
2022-08-03T03:11:09.048Z,16.25
2022-08-03T03:13:58.721Z,16.25
2022-08-03T03:16:51.837Z,16.31
2022-08-03T03:19:46.775Z,16.38
2022-08-03T03:22:36.408Z,16.44
2022-08-03T03:25:25.145Z,16.50
2022-08-03T03:28:13.144Z,16.63
2022-08-03T03:31:01.665Z,16.63
2022-08-03T03:33:49.899Z,16.69
2022-08-03T03:36:38.238Z,16.75
2022-08-03T03:39:26.120Z,16.81
2022-08-03T03:42:14.741Z,16.88
2022-08-03T03:45:08.489Z,16.94
2022-08-03T03:47:56.308Z,17.00
2022-08-03T03:50:45.844Z,17.13
2022-08-03T03:53:33.547Z,17.19
2022-08-03T03:56:21.475Z,17.31
2022-08-03T03:59:09.551Z,17.44
2022-08-03T04:01:59.126Z,17.56
2022-08-03T04:05:05.954Z,17.75
2022-08-03T04:08:19.984Z,18.00
2022-08-03T04:11:30.086Z,18.13
2022-08-03T04:14:37.767Z,18.31
2022-08-03T04:17:29.631Z,18.44
2022-08-03T04:20:21.684Z,18.63
2022-08-03T04:23:15.422Z,18.81
2022-08-03T04:26:09.789Z,19.00
2022-08-03T04:28:59.112Z,19.38
2022-08-03T04:31:48.808Z,19.75
2022-08-03T04:34:37.172Z,20.00
2022-08-03T04:37:48.069Z,20.31
2022-08-03T04:40:39.995Z,20.25
2022-08-03T04:43:29.604Z,20.56
2022-08-03T04:46:22.235Z,20.81
2022-08-03T04:49:10.542Z,21.00
2022-08-03T04:51:59.814Z,21.19
2022-08-03T04:54:50.525Z,21.25
2022-08-03T04:57:39.039Z,21.31
2022-08-03T05:00:27.484Z,21.38
2022-08-03T05:03:20.469Z,21.50
2022-08-03T05:06:13.096Z,21.69
2022-08-03T05:09:04.480Z,21.88
2022-08-03T05:11:53.739Z,22.19
2022-08-03T05:14:41.720Z,22.50
2022-08-03T05:17:29.750Z,22.75
2022-08-03T05:20:19.141Z,23.00
2022-08-03T05:23:07.210Z,23.25
2022-08-03T05:25:55.145Z,23.50
2022-08-03T05:28:50.898Z,23.81
2022-08-03T05:31:40.955Z,24.06
2022-08-03T05:34:29.322Z,24.25
2022-08-03T05:37:17.354Z,24.63
2022-08-03T05:40:06.358Z,25.00
2022-08-03T05:42:54.322Z,25.31
2022-08-03T05:45:42.288Z,25.75
2022-08-03T05:48:30.033Z,25.94
2022-08-03T05:51:18.311Z,26.31
2022-08-03T05:54:06.448Z,26.94
2022-08-03T05:56:54.394Z,27.94
2022-08-03T05:59:53.848Z,28.31
2022-08-03T06:02:46.663Z,28.63
2022-08-03T06:05:37.259Z,28.88
2022-08-03T06:08:31.438Z,29.81
2022-08-03T06:11:19.340Z,30.94
2022-08-03T06:14:07.271Z,32.31
2022-08-03T06:16:55.248Z,33.94
2022-08-03T06:19:43.263Z,34.88
2022-08-03T06:22:31.363Z,35.75
2022-08-03T06:25:21.171Z,36.38
2022-08-03T06:28:14.992Z,35.44
2022-08-03T06:31:11.642Z,36.56
2022-08-03T06:34:34.096Z,35.63
2022-08-03T06:37:07.731Z,35.44
2022-08-03T06:39:55.731Z,35.63
2022-08-03T06:42:44.366Z,36.38
2022-08-03T06:45:35.514Z,37.00
2022-08-03T06:48:27.897Z,38.38
2022-08-03T06:51:16.005Z,39.56
2022-08-03T06:54:05.075Z,39.31
2022-08-03T06:56:54.148Z,39.50
2022-08-03T07:00:10.364Z,40.38
2022-08-03T07:02:51.788Z,42.25
2022-08-03T07:05:46.800Z,43.63
2022-08-03T07:08:34.701Z,44.50
2022-08-03T07:11:24.385Z,46.25
2022-08-03T07:14:12.223Z,46.75
2022-08-03T07:17:00.423Z,47.25
2022-08-03T07:19:50.532Z,48.69
2022-08-03T07:22:39.229Z,49.38
2022-08-03T07:25:27.505Z,49.06
2022-08-03T07:28:15.450Z,50.94
2022-08-03T07:31:03.769Z,52.06
2022-08-03T07:33:51.465Z,53.63
2022-08-03T07:36:39.370Z,55.63
2022-08-03T07:39:27.376Z,55.69
2022-08-03T07:42:15.648Z,53.56
2022-08-03T07:45:04.567Z,52.25
2022-08-03T07:47:53.429Z,52.25
2022-08-03T07:50:42.202Z,53.50
2022-08-03T07:53:30.172Z,54.94
2022-08-03T07:56:18.049Z,57.06
2022-08-03T07:59:06.204Z,56.69
2022-08-03T08:01:56.840Z,56.25
2022-08-03T08:04:44.755Z,54.38
2022-08-03T08:07:32.936Z,55.75
2022-08-03T08:10:21.013Z,56.88
2022-08-03T08:13:08.797Z,57.13
2022-08-03T08:15:56.701Z,55.38
2022-08-03T08:18:44.516Z,53.63
2022-08-03T08:21:52.938Z,53.88
2022-08-03T08:24:40.899Z,53.88
2022-08-03T08:28:22.194Z,56.75
2022-08-03T08:30:41.785Z,55.50
2022-08-03T08:33:47.944Z,55.88
2022-08-03T08:36:38.185Z,58.75
2022-08-03T08:39:26.067Z,59.50
2022-08-03T08:42:15.789Z,59.56
2022-08-03T08:45:07.197Z,59.56
2022-08-03T08:48:01.023Z,57.50
2022-08-03T08:50:54.852Z,58.19
2022-08-03T08:53:48.068Z,59.19
2022-08-03T08:56:39.023Z,60.56
2022-08-03T08:59:27.425Z,61.69
2022-08-03T09:02:35.740Z,62.88
2022-08-03T09:05:36.236Z,62.94
2022-08-03T09:08:33.493Z,61.19
2022-08-03T09:11:57.685Z,61.88
2022-08-03T09:14:39.199Z,63.50
2022-08-03T09:17:41.409Z,63.94
2022-08-03T09:20:33.581Z,63.38
2022-08-03T09:23:59.596Z,64.13
2022-08-03T09:26:31.868Z,62.31
2022-08-03T09:29:21.992Z,62.25
2022-08-03T09:32:11.364Z,62.19
2022-08-03T09:35:05.382Z,50.19
2022-08-03T09:38:24.175Z,57.38
2022-08-03T09:41:19.830Z,61.06
2022-08-03T09:44:08.764Z,58.00
2022-08-03T09:47:16.991Z,62.00
2022-08-03T09:50:09.104Z,64.75
2022-08-03T09:53:02.271Z,65.75
2022-08-03T09:56:32.879Z,64.88
2022-08-03T09:59:02.329Z,59.44
2022-08-03T10:01:52.968Z,58.44
2022-08-03T10:04:53.059Z,60.50
2022-08-03T10:07:49.100Z,59.88
2022-08-03T10:10:44.429Z,56.31
2022-08-03T10:13:32.459Z,52.56
2022-08-03T10:16:25.586Z,56.88
2022-08-03T10:19:15.356Z,59.69
2022-08-03T10:22:12.476Z,60.50
2022-08-03T10:25:11.911Z,60.63
2022-08-03T10:28:04.624Z,60.44
2022-08-03T10:30:55.597Z,52.63
2022-08-03T10:33:51.813Z,54.06
2022-08-03T10:36:41.852Z,60.06
2022-08-03T10:39:30.987Z,62.88
2022-08-03T10:42:20.320Z,62.94
2022-08-03T10:45:26.929Z,64.56
2022-08-03T10:48:16.115Z,64.19
2022-08-03T10:51:05.059Z,62.94
2022-08-03T10:53:54.963Z,53.25
2022-08-03T10:57:13.396Z,44.75
2022-08-03T11:00:19.135Z,53.63
2022-08-03T11:03:14.899Z,57.13
2022-08-03T11:06:19.219Z,58.31
2022-08-03T11:09:10.175Z,60.31
2022-08-03T11:11:58.099Z,62.63
2022-08-03T11:14:48.425Z,58.63
2022-08-03T11:17:45.796Z,59.88
2022-08-03T11:20:55.419Z,61.06
2022-08-03T11:24:04.129Z,60.75
2022-08-03T11:27:20.027Z,54.69
2022-08-03T11:30:29.366Z,50.31
2022-08-03T11:33:31.375Z,52.56
2022-08-03T11:36:32.303Z,54.38
2022-08-03T11:39:20.527Z,56.06
2022-08-03T11:42:35.484Z,55.69
2022-08-03T11:45:23.306Z,52.25
2022-08-03T11:48:17.130Z,46.50
2022-08-03T11:51:08.312Z,42.13
2022-08-03T11:54:02.745Z,39.25
2022-08-03T11:56:51.168Z,36.44
2022-08-03T11:59:39.253Z,35.00
2022-08-03T12:02:27.325Z,34.00
2022-08-03T12:05:15.075Z,34.00
2022-08-03T12:08:06.736Z,33.75
2022-08-03T12:10:57.526Z,34.00
2022-08-03T12:14:45.747Z,33.38
2022-08-03T12:17:02.083Z,32.31
2022-08-03T12:19:50.021Z,31.50
2022-08-03T12:22:40.806Z,31.63
2022-08-03T12:25:39.465Z,31.88
2022-08-03T12:28:28.323Z,31.63
2022-08-03T12:31:26.146Z,31.75
2022-08-03T12:34:14.487Z,31.56
2022-08-03T12:37:22.301Z,31.69
2022-08-03T12:40:17.827Z,30.75
2022-08-03T12:43:13.554Z,30.88
2022-08-03T12:46:13.093Z,30.75
2022-08-03T12:49:09.767Z,30.94
2022-08-03T12:52:05.331Z,31.25
2022-08-03T12:54:56.901Z,31.44
2022-08-03T12:57:45.350Z,31.38
2022-08-03T13:00:33.715Z,31.69
2022-08-03T13:03:39.097Z,31.69
2022-08-03T13:06:29.841Z,31.38
2022-08-03T13:09:18.409Z,31.25
2022-08-03T13:12:12.089Z,31.50
2022-08-03T13:15:01.223Z,31.56
2022-08-03T13:17:49.344Z,31.75
2022-08-03T13:20:37.263Z,31.88
2022-08-03T13:23:25.398Z,31.00
2022-08-03T13:26:13.844Z,30.38
2022-08-03T13:29:01.772Z,30.56
2022-08-03T13:31:51.695Z,31.00
2022-08-03T13:34:40.269Z,31.13
2022-08-03T13:37:29.612Z,31.19
2022-08-03T13:40:17.959Z,30.94
2022-08-03T13:43:05.788Z,30.88
2022-08-03T13:45:57.782Z,30.63
2022-08-03T13:48:45.711Z,30.81
2022-08-03T13:51:34.827Z,30.81
2022-08-03T13:54:23.810Z,30.75
2022-08-03T13:58:02.971Z,30.50
2022-08-03T14:00:27.967Z,30.31
2022-08-03T14:03:17.449Z,30.00
2022-08-03T14:06:05.675Z,29.94
2022-08-03T14:08:55.888Z,30.25
2022-08-03T14:12:07.449Z,30.44
2022-08-03T14:14:56.998Z,30.56
2022-08-03T14:17:50.199Z,30.63
2022-08-03T14:20:50.136Z,30.56
2022-08-03T14:23:42.301Z,30.69
2022-08-03T14:26:30.845Z,30.75
2022-08-03T14:29:18.706Z,30.63
2022-08-03T14:32:09.717Z,30.56
2022-08-03T14:34:58.653Z,30.50
2022-08-03T14:37:46.534Z,30.44
2022-08-03T14:40:34.692Z,30.38
2022-08-03T14:43:22.946Z,30.31
2022-08-03T14:46:10.720Z,30.50
2022-08-03T14:50:28.637Z,30.31
2022-08-03T14:52:08.587Z,29.94
2022-08-03T14:54:56.778Z,29.88
2022-08-03T14:57:44.833Z,30.00
2022-08-03T15:00:34.402Z,30.06
2022-08-03T15:03:25.188Z,30.00
2022-08-03T15:06:13.609Z,30.00
2022-08-03T15:12:10.202Z,30.00
2022-08-03T15:14:58.019Z,29.88
2022-08-03T15:17:59.825Z,29.94
2022-08-03T15:20:50.940Z,29.81
2022-08-03T15:23:39.116Z,29.88
2022-08-03T15:26:36.461Z,29.94
2022-08-03T15:30:09.433Z,29.94
2022-08-03T15:32:37.130Z,29.88
2022-08-03T15:35:25.287Z,29.94
2022-08-03T15:38:13.783Z,29.94
2022-08-03T15:41:02.072Z,29.88
2022-08-03T15:43:54.172Z,29.94
2022-08-03T15:46:42.805Z,29.94
2022-08-03T15:49:30.829Z,29.94
2022-08-03T15:52:18.892Z,30.00
2022-08-03T15:55:08.144Z,29.81
2022-08-03T15:59:04.394Z,29.75
2022-08-03T16:01:19.110Z,29.44
2022-08-03T16:04:08.100Z,29.31
2022-08-03T16:06:56.259Z,29.13
2022-08-03T16:09:44.450Z,29.19
2022-08-03T16:12:33.998Z,29.13
2022-08-03T16:15:22.135Z,29.06
2022-08-03T16:18:12.507Z,29.19
2022-08-03T16:21:02.918Z,29.06
2022-08-03T16:23:52.171Z,28.88
2022-08-03T16:26:41.940Z,28.63
2022-08-03T16:29:33.677Z,28.63
2022-08-03T16:32:24.921Z,28.50
2022-08-03T16:35:19.662Z,28.38
2022-08-03T16:38:10.939Z,28.31
2022-08-03T16:41:00.221Z,28.25
2022-08-03T16:43:48.658Z,28.13
2022-08-03T16:46:37.397Z,27.94
2022-08-03T16:49:54.351Z,27.81
2022-08-03T16:52:39.670Z,27.81
2022-08-03T16:55:48.901Z,27.69
2022-08-03T16:58:44.375Z,27.56
2022-08-03T17:01:37.810Z,27.44
2022-08-03T17:04:27.473Z,27.31
2022-08-03T17:07:18.211Z,27.13
2022-08-03T17:10:09.866Z,27.06
2022-08-03T17:13:00.105Z,26.94
2022-08-03T17:16:01.573Z,26.81
2022-08-03T17:18:57.509Z,26.69
2022-08-03T17:22:04.201Z,26.56
2022-08-03T17:24:54.379Z,26.44
2022-08-03T17:28:48.435Z,26.31
2022-08-03T17:31:22.548Z,26.13
2022-08-03T17:34:26.273Z,25.94
2022-08-03T17:37:50.586Z,25.75
2022-08-03T17:40:29.207Z,25.56
2022-08-03T17:44:12.761Z,25.44
2022-08-03T17:46:29.748Z,25.25
2022-08-03T17:49:24.871Z,25.06
2022-08-03T17:52:21.668Z,24.94
2022-08-03T17:55:57.871Z,24.75
2022-08-03T17:58:55.596Z,24.56
2022-08-03T18:02:47.464Z,24.44
2022-08-03T18:06:10.347Z,24.19
2022-08-03T18:08:57.858Z,24.00
2022-08-03T18:11:55.462Z,23.81
2022-08-03T18:14:57.635Z,23.69
2022-08-03T18:17:55.654Z,23.50
2022-08-03T18:20:51.820Z,23.38
2022-08-03T18:23:39.941Z,23.25
2022-08-03T18:26:30.259Z,23.13
2022-08-03T18:29:22.889Z,22.94
2022-08-03T18:32:16.742Z,22.81
2022-08-03T18:35:07.647Z,22.69
2022-08-03T18:38:03.864Z,22.63
2022-08-03T18:41:00.302Z,22.50
2022-08-03T18:44:08.995Z,22.38
2022-08-03T18:47:23.495Z,22.31
2022-08-03T18:50:30.999Z,22.13
2022-08-03T18:54:04.102Z,22.00
2022-08-03T18:57:00.635Z,21.81
2022-08-03T19:00:14.864Z,21.75
2022-08-03T19:03:10.237Z,21.63
2022-08-03T19:06:15.870Z,21.50
2022-08-03T19:09:16.917Z,21.44
2022-08-03T19:12:39.836Z,21.38
2022-08-03T19:15:36.446Z,21.31
2022-08-03T19:18:32.779Z,21.25
2022-08-03T19:21:22.921Z,21.19
2022-08-03T19:24:13.847Z,21.06
2022-08-03T19:27:05.220Z,21.00
2022-08-03T19:30:19.966Z,21.00
2022-08-03T19:33:16.653Z,20.94
2022-08-03T19:36:10.897Z,20.88
2022-08-03T19:39:00.596Z,20.81
2022-08-03T19:41:52.393Z,20.81
2022-08-03T19:44:50.752Z,20.75
2022-08-03T19:47:56.063Z,20.75
2022-08-03T19:50:48.598Z,20.69
2022-08-03T19:53:44.980Z,20.63
2022-08-03T19:56:34.455Z,20.50
2022-08-03T19:59:26.390Z,20.44
2022-08-03T20:02:17.452Z,20.38
2022-08-03T20:05:15.965Z,20.31
2022-08-03T20:08:07.676Z,20.25
2022-08-03T20:10:59.848Z,20.25
2022-08-03T20:13:54.727Z,20.19
2022-08-03T20:16:45.134Z,20.13
2022-08-03T20:19:35.085Z,20.06
2022-08-03T20:22:34.085Z,20.06
2022-08-03T20:25:38.835Z,20.00
2022-08-03T20:28:50.631Z,19.94
2022-08-03T20:31:39.090Z,19.94
2022-08-03T20:34:27.041Z,19.88
2022-08-03T20:37:15.723Z,19.81
2022-08-03T20:40:07.724Z,19.75
2022-08-03T20:42:55.866Z,19.75
2022-08-03T20:48:54.112Z,19.75
2022-08-03T20:51:50.007Z,19.69
2022-08-03T20:54:41.579Z,19.69
2022-08-03T20:57:33.169Z,19.69
2022-08-03T21:00:21.960Z,19.75
2022-08-03T21:03:09.956Z,19.75
2022-08-03T21:06:06.563Z,19.75
2022-08-03T21:09:05.503Z,19.88
2022-08-03T21:11:55.984Z,20.06
2022-08-03T21:13:07.322Z,19.75
2022-08-03T21:15:01.860Z,20.06
2022-08-03T21:17:54.882Z,20.06
2022-08-03T21:20:47.891Z,20.13
2022-08-03T21:23:48.682Z,20.13
2022-08-03T21:26:39.898Z,20.19
2022-08-03T21:29:28.768Z,20.19
2022-08-03T21:32:32.634Z,20.31
2022-08-03T21:35:23.943Z,20.31
2022-08-03T21:38:20.903Z,20.31
2022-08-03T21:41:20.706Z,20.38
2022-08-03T21:44:09.830Z,20.38
2022-08-03T21:47:00.183Z,20.38
2022-08-03T21:50:06.649Z,20.38
2022-08-03T21:52:59.447Z,20.38
2022-08-03T21:56:00.098Z,20.50
2022-08-03T21:59:00.120Z,20.56
2022-08-03T22:01:55.276Z,20.56
2022-08-03T22:04:53.223Z,20.56
2022-08-03T22:07:44.963Z,20.56
2022-08-03T22:10:32.975Z,20.63
2022-08-03T22:13:42.979Z,20.69
2022-08-03T22:16:30.587Z,20.63
2022-08-03T22:19:18.882Z,20.56
2022-08-03T22:22:13.811Z,20.56
2022-08-03T22:25:12.380Z,20.56
2022-08-03T22:28:10.269Z,20.56
2022-08-03T22:31:00.279Z,20.63
2022-08-03T22:34:08.273Z,20.63
2022-08-03T22:37:02.680Z,20.63
2022-08-03T22:39:51.386Z,20.56
2022-08-03T22:42:42.493Z,20.44
2022-08-03T22:46:06.404Z,20.44
2022-08-03T22:48:40.684Z,20.44
2022-08-03T22:51:30.464Z,20.38
2022-08-03T22:54:18.432Z,20.44
2022-08-03T22:57:07.702Z,20.44
2022-08-03T22:59:55.558Z,20.44
2022-08-03T23:02:48.770Z,20.50
2022-08-03T23:06:01.351Z,20.50
2022-08-03T23:08:47.093Z,20.50
2022-08-03T23:11:45.935Z,20.50
2022-08-03T23:14:38.946Z,20.50
2022-08-03T23:17:31.009Z,20.50
2022-08-03T23:20:20.293Z,20.50
2022-08-03T23:23:15.149Z,20.50
2022-08-03T23:26:08.635Z,20.50
2022-08-03T23:29:01.471Z,20.63
2022-08-03T23:31:50.026Z,20.63
2022-08-03T23:34:59.279Z,20.69
2022-08-03T23:38:04.471Z,20.69
2022-08-03T23:41:00.985Z,20.81
2022-08-03T23:43:54.043Z,20.81
2022-08-03T23:46:44.331Z,20.81
2022-08-03T23:49:32.954Z,20.81
2022-08-03T23:52:49.670Z,20.81
2022-08-03T23:56:11.613Z,20.81
2022-08-03T23:59:42.704Z,20.88
